Plamondon, Canada
Current Conditions -  °F | °C
As of 1:00 AM on Saturday 20 Dec 2014 (Local Time) from CYOD Reporting Station
Overcast Overcast  
Wind Chill: 14°   Ceiling: 7500
Heat Index: 14°   Visibility: 15mi
Dew Point: 12°   Wind: 3mph
Humidity: 93%   Direction: 160°SSE
Pressure: 29.74"   Gusts: NA
Location:  54.85°N, 112.34°W
Report Text: CYOD 200800Z 16003KT 15SM OVC075 M10/M11 A2974 RMK AC8 SLP113
Loading
Personal Weather Stations






























Interactive Weather Map New forecast layout! Learn more

10-Day Weather Forecast

Advertisements
Track Severe Weather on mobile